createdAt,value
2022-08-07T00:01:44.588Z,13.90
2022-08-07T00:04:17.390Z,13.90
2022-08-07T00:06:52.728Z,13.90
2022-08-07T00:09:22.443Z,14.00
2022-08-07T00:11:55.510Z,14.00
2022-08-07T00:14:31.388Z,14.00
2022-08-07T00:17:02.931Z,14.00
2022-08-07T00:20:00.668Z,14.00
2022-08-07T00:22:24.526Z,14.00
2022-08-07T00:25:04.909Z,13.90
2022-08-07T00:27:51.699Z,13.90
2022-08-07T00:30:27.437Z,14.00
2022-08-07T00:32:58.584Z,14.00
2022-08-07T00:35:29.998Z,14.00
2022-08-07T00:37:58.965Z,14.00
2022-08-07T00:40:38.963Z,13.90
2022-08-07T00:43:10.499Z,13.90
2022-08-07T00:45:58.078Z,13.90
2022-08-07T00:48:31.871Z,13.90
2022-08-07T00:51:02.824Z,13.90
2022-08-07T00:53:39.239Z,13.90
2022-08-07T00:56:18.752Z,13.80
2022-08-07T00:58:49.554Z,13.80
2022-08-07T01:01:20.487Z,13.80
2022-08-07T01:03:57.313Z,13.80
2022-08-07T01:06:29.095Z,13.70
2022-08-07T01:09:01.232Z,13.70
2022-08-07T01:12:23.335Z,13.70
2022-08-07T01:14:21.447Z,13.70
2022-08-07T01:16:57.861Z,13.70
2022-08-07T01:19:32.556Z,13.70
2022-08-07T01:22:04.029Z,13.80
2022-08-07T01:24:37.593Z,13.80
2022-08-07T01:27:06.377Z,13.70
2022-08-07T01:29:48.634Z,13.70
2022-08-07T01:32:19.496Z,13.60
2022-08-07T01:34:52.117Z,13.60
2022-08-07T01:37:22.071Z,13.60
2022-08-07T01:39:50.538Z,13.60
2022-08-07T01:42:40.000Z,13.60
2022-08-07T01:45:10.012Z,13.60
2022-08-07T01:48:20.484Z,13.60
2022-08-07T01:50:40.228Z,13.60
2022-08-07T01:53:21.045Z,13.60
2022-08-07T01:55:55.654Z,13.50
2022-08-07T01:58:29.884Z,13.50
2022-08-07T02:01:09.924Z,13.50
2022-08-07T02:03:59.248Z,13.50
2022-08-07T02:06:32.535Z,13.50
2022-08-07T02:09:05.955Z,13.40
2022-08-07T02:12:04.861Z,13.40
2022-08-07T02:14:40.275Z,13.40
2022-08-07T02:17:11.173Z,13.30
2022-08-07T02:20:07.383Z,13.30
2022-08-07T02:22:33.305Z,13.30
2022-08-07T02:25:17.178Z,13.20
2022-08-07T02:27:51.977Z,13.20
2022-08-07T02:30:21.966Z,13.20
2022-08-07T02:33:01.070Z,13.20
2022-08-07T02:36:29.878Z,13.20
2022-08-07T02:38:31.470Z,13.20
2022-08-07T02:41:03.736Z,13.20
2022-08-07T02:43:33.996Z,13.20
2022-08-07T02:46:05.691Z,13.20
2022-08-07T02:48:34.460Z,13.20
2022-08-07T02:51:28.979Z,13.10
2022-08-07T02:54:01.771Z,13.10
2022-08-07T02:56:34.298Z,13.10
2022-08-07T02:59:05.769Z,13.10
2022-08-07T03:01:39.886Z,13.10
2022-08-07T03:04:12.655Z,13.10
2022-08-07T03:06:44.758Z,13.10
2022-08-07T03:09:41.879Z,13.00
2022-08-07T03:12:08.130Z,13.00
2022-08-07T03:14:52.205Z,13.00
2022-08-07T03:17:22.223Z,13.00
2022-08-07T03:19:55.251Z,12.90
2022-08-07T03:22:29.640Z,12.90
2022-08-07T03:24:59.962Z,12.90
2022-08-07T03:27:58.824Z,13.00
2022-08-07T03:30:20.565Z,13.00
2022-08-07T03:32:59.388Z,13.00
2022-08-07T03:35:43.979Z,13.10
2022-08-07T03:38:20.898Z,13.10
2022-08-07T03:40:54.046Z,13.10
2022-08-07T03:43:32.376Z,13.10
2022-08-07T03:46:03.388Z,13.20
2022-08-07T03:48:33.597Z,13.20
2022-08-07T03:51:15.251Z,13.20
2022-08-07T03:54:05.666Z,13.30
2022-08-07T03:56:40.246Z,13.30
2022-08-07T03:59:30.518Z,13.30
2022-08-07T04:01:58.834Z,13.30
2022-08-07T04:04:27.317Z,13.30
2022-08-07T04:06:55.992Z,13.30
2022-08-07T04:09:45.117Z,13.20
2022-08-07T04:12:27.520Z,13.20
2022-08-07T04:14:59.409Z,13.20
2022-08-07T04:18:11.252Z,13.20
2022-08-07T04:20:19.585Z,13.20
2022-08-07T04:22:53.560Z,13.40
2022-08-07T04:25:30.104Z,13.40
2022-08-07T04:28:04.910Z,13.40
2022-08-07T04:30:43.799Z,13.50
2022-08-07T04:33:25.606Z,13.50
2022-08-07T04:35:54.449Z,13.50
2022-08-07T04:38:23.874Z,13.60
2022-08-07T04:40:56.693Z,13.70
2022-08-07T04:44:10.266Z,13.80
2022-08-07T04:46:34.474Z,13.80
2022-08-07T04:49:17.744Z,13.80
2022-08-07T04:51:58.497Z,13.90
2022-08-07T04:54:34.329Z,14.00
2022-08-07T04:58:12.543Z,14.00
2022-08-07T05:00:14.172Z,14.10
2022-08-07T05:02:57.437Z,14.10
2022-08-07T05:05:53.590Z,14.10
2022-08-07T05:09:00.097Z,14.20
2022-08-07T05:11:19.290Z,14.20
2022-08-07T05:14:55.986Z,14.30
2022-08-07T05:17:01.677Z,14.20
2022-08-07T05:19:44.713Z,14.30
2022-08-07T05:22:26.501Z,14.40
2022-08-07T05:24:59.574Z,14.40
2022-08-07T05:28:03.123Z,14.40
2022-08-07T05:30:29.997Z,14.50
2022-08-07T05:33:03.338Z,14.50
2022-08-07T05:35:41.602Z,14.60
2022-08-07T05:38:12.255Z,14.60
2022-08-07T05:40:51.491Z,14.70
2022-08-07T05:43:49.994Z,14.80
2022-08-07T05:46:10.114Z,14.70
2022-08-07T05:48:58.175Z,14.80
2022-08-07T05:51:31.446Z,14.80
2022-08-07T05:54:12.732Z,14.90
2022-08-07T05:56:51.450Z,14.90
2022-08-07T05:59:22.444Z,14.90
2022-08-07T06:01:51.879Z,15.00
2022-08-07T06:04:26.277Z,15.10
2022-08-07T06:07:04.474Z,15.10
2022-08-07T06:09:44.899Z,15.20
2022-08-07T06:12:31.878Z,15.20
2022-08-07T06:15:05.308Z,15.30
2022-08-07T06:17:38.206Z,15.40
2022-08-07T06:20:12.644Z,15.50
2022-08-07T06:23:25.066Z,15.50
2022-08-07T06:25:54.449Z,15.70
2022-08-07T06:28:27.207Z,15.80
2022-08-07T06:30:58.261Z,15.80
2022-08-07T06:33:29.730Z,15.90
2022-08-07T06:36:13.415Z,15.90
2022-08-07T06:38:51.409Z,16.00
2022-08-07T06:42:02.540Z,16.10
2022-08-07T06:44:33.848Z,16.10
2022-08-07T06:47:12.692Z,16.10
2022-08-07T06:49:51.584Z,16.20
2022-08-07T06:52:31.811Z,16.30
2022-08-07T06:55:32.413Z,16.40
2022-08-07T06:58:01.639Z,16.50
2022-08-07T07:00:35.189Z,16.60
2022-08-07T07:03:08.807Z,16.70
2022-08-07T07:06:04.188Z,16.80
2022-08-07T07:08:28.978Z,17.00
2022-08-07T07:11:00.929Z,17.00
2022-08-07T07:13:56.072Z,17.10
2022-08-07T07:16:27.614Z,17.20
2022-08-07T07:19:40.997Z,17.40
2022-08-07T07:22:11.753Z,17.50
2022-08-07T07:24:43.004Z,17.60
2022-08-07T07:27:15.991Z,17.70
2022-08-07T07:30:09.056Z,17.90
2022-08-07T07:32:40.590Z,18.20
2022-08-07T07:35:13.174Z,18.50
2022-08-07T07:37:47.398Z,18.80
2022-08-07T07:40:26.047Z,19.00
2022-08-07T07:43:11.747Z,19.50
2022-08-07T07:46:38.153Z,19.90
2022-08-07T07:48:38.703Z,20.30
2022-08-07T07:51:08.629Z,20.40
2022-08-07T07:53:51.312Z,20.40
2022-08-07T07:56:29.656Z,19.90
2022-08-07T07:59:02.137Z,19.40
2022-08-07T08:02:01.667Z,19.40
2022-08-07T08:04:25.913Z,19.70
2022-08-07T08:07:00.563Z,20.20
2022-08-07T08:09:30.047Z,20.30
2022-08-07T08:12:03.939Z,20.20
2022-08-07T08:14:37.107Z,20.40
2022-08-07T08:17:55.632Z,21.10
2022-08-07T08:20:17.082Z,21.90
2022-08-07T08:23:08.219Z,22.30
2022-08-07T08:25:58.215Z,22.70
2022-08-07T08:28:38.091Z,23.10
2022-08-07T08:31:16.452Z,23.50
2022-08-07T08:33:49.262Z,23.50
2022-08-07T08:36:29.672Z,23.80
2022-08-07T08:39:02.868Z,24.10
2022-08-07T08:41:58.386Z,23.60
2022-08-07T08:44:37.266Z,23.80
2022-08-07T08:47:25.229Z,23.40
2022-08-07T08:50:04.491Z,23.40
2022-08-07T08:52:40.945Z,23.50
2022-08-07T08:55:54.868Z,23.60
2022-08-07T08:58:29.544Z,23.80
2022-08-07T09:01:15.179Z,24.20
2022-08-07T09:03:57.857Z,24.50
2022-08-07T09:06:42.679Z,23.90
2022-08-07T09:09:33.273Z,23.60
2022-08-07T09:12:30.555Z,24.30
2022-08-07T09:16:23.531Z,24.90
2022-08-07T09:18:22.653Z,25.10
2022-08-07T09:21:05.529Z,24.80
2022-08-07T09:24:28.730Z,24.70
2022-08-07T09:26:47.785Z,24.30
2022-08-07T09:30:06.240Z,23.40
2022-08-07T09:32:26.933Z,23.40
2022-08-07T09:36:04.889Z,23.80
2022-08-07T09:38:18.338Z,24.30
2022-08-07T09:41:09.101Z,24.70
2022-08-07T09:44:06.051Z,24.00
2022-08-07T09:47:50.581Z,23.90
2022-08-07T09:50:01.779Z,24.20
2022-08-07T09:52:51.595Z,24.50
2022-08-07T09:56:02.777Z,24.40
2022-08-07T09:58:36.074Z,24.40
2022-08-07T10:01:51.042Z,23.70
2022-08-07T10:04:32.609Z,23.30
2022-08-07T10:07:24.301Z,22.60
2022-08-07T10:10:06.370Z,21.90
2022-08-07T10:13:29.803Z,21.40
2022-08-07T10:16:11.765Z,21.40
2022-08-07T10:18:57.475Z,22.00
2022-08-07T10:22:01.184Z,23.00
2022-08-07T10:25:06.979Z,24.00
2022-08-07T10:27:51.234Z,24.30
2022-08-07T10:30:29.201Z,23.80
2022-08-07T10:34:06.243Z,24.10
2022-08-07T10:36:29.271Z,23.20
2022-08-07T10:39:05.470Z,22.80
2022-08-07T10:41:54.752Z,22.60
2022-08-07T10:44:38.625Z,22.20
2022-08-07T10:47:26.846Z,22.70
2022-08-07T10:50:05.451Z,23.60
2022-08-07T10:52:40.076Z,23.70
2022-08-07T10:55:26.824Z,23.50
2022-08-07T10:58:36.676Z,23.10
2022-08-07T11:01:23.885Z,22.80
2022-08-07T11:04:31.442Z,23.30
2022-08-07T11:07:15.131Z,24.00
2022-08-07T11:10:09.537Z,24.80
2022-08-07T11:12:49.116Z,25.40
2022-08-07T11:15:31.565Z,25.70
2022-08-07T11:18:05.141Z,25.80
2022-08-07T11:20:44.500Z,25.50
2022-08-07T11:23:30.430Z,24.20
2022-08-07T11:26:13.103Z,23.20
2022-08-07T11:28:53.378Z,22.40
2022-08-07T11:31:33.262Z,22.10
2022-08-07T11:34:16.387Z,21.80
2022-08-07T11:37:01.014Z,21.80
2022-08-07T11:40:00.314Z,21.80
2022-08-07T11:42:39.759Z,22.00
2022-08-07T11:45:20.511Z,22.90
2022-08-07T11:48:09.837Z,23.80
2022-08-07T11:51:00.954Z,23.70
2022-08-07T11:54:01.613Z,23.40
2022-08-07T11:56:43.090Z,22.90
2022-08-07T12:00:11.218Z,22.30
2022-08-07T12:02:37.311Z,22.30
2022-08-07T12:05:41.055Z,22.30
2022-08-07T12:08:25.846Z,22.40
2022-08-07T12:11:20.465Z,22.40
2022-08-07T12:13:57.798Z,22.80
2022-08-07T12:16:30.863Z,23.00
2022-08-07T12:19:10.740Z,23.00
2022-08-07T12:21:55.693Z,22.90
2022-08-07T12:25:07.515Z,23.10
2022-08-07T12:28:04.010Z,23.20
2022-08-07T12:30:34.677Z,22.90
2022-08-07T12:33:18.984Z,23.10
2022-08-07T12:35:58.039Z,23.50
2022-08-07T12:38:42.844Z,23.40
2022-08-07T12:41:17.390Z,23.10
2022-08-07T12:44:04.381Z,23.00
2022-08-07T12:46:52.115Z,22.60
2022-08-07T12:49:44.238Z,22.80
2022-08-07T12:52:27.119Z,23.10
2022-08-07T12:55:03.769Z,23.00
2022-08-07T12:57:39.276Z,22.70
2022-08-07T13:00:35.983Z,22.30
2022-08-07T13:03:54.995Z,21.90
2022-08-07T13:06:54.311Z,21.90
2022-08-07T13:10:21.438Z,21.80
2022-08-07T13:12:47.737Z,21.70
2022-08-07T13:15:31.816Z,21.90
2022-08-07T13:18:11.330Z,22.20
2022-08-07T13:21:03.726Z,22.70
2022-08-07T13:24:02.011Z,23.00
2022-08-07T13:26:36.809Z,23.30
2022-08-07T13:29:13.861Z,23.60
2022-08-07T13:31:57.848Z,23.60
2022-08-07T13:34:39.334Z,23.40
2022-08-07T13:37:22.038Z,23.20
2022-08-07T13:40:36.127Z,23.20
2022-08-07T13:42:53.729Z,23.10
2022-08-07T13:46:11.711Z,23.10
2022-08-07T13:48:20.609Z,22.90
2022-08-07T13:51:27.166Z,22.60
2022-08-07T13:54:00.406Z,22.60
2022-08-07T13:56:35.658Z,22.80
2022-08-07T13:59:13.165Z,22.90
2022-08-07T14:02:04.161Z,22.80
2022-08-07T14:04:49.204Z,22.50
2022-08-07T14:07:21.315Z,22.30
2022-08-07T14:10:03.014Z,22.30
2022-08-07T14:12:55.191Z,22.20
2022-08-07T14:15:31.616Z,22.00
2022-08-07T14:18:27.349Z,22.00
2022-08-07T14:21:08.157Z,21.90
2022-08-07T14:24:00.674Z,21.90
2022-08-07T14:26:37.191Z,21.90
2022-08-07T14:30:02.621Z,21.80
2022-08-07T14:32:04.486Z,21.80
2022-08-07T14:34:35.134Z,21.80
2022-08-07T14:37:18.635Z,22.00
2022-08-07T14:40:16.211Z,22.00
2022-08-07T14:43:55.380Z,22.10
2022-08-07T14:48:22.126Z,22.00
2022-08-07T14:51:00.124Z,22.00
2022-08-07T14:56:29.585Z,22.10
2022-08-07T14:59:03.094Z,22.10
2022-08-07T15:01:51.496Z,22.00
2022-08-07T15:04:25.186Z,21.90
2022-08-07T15:06:55.113Z,22.00
2022-08-07T15:12:20.969Z,22.40
2022-08-07T15:13:05.805Z,22.30
2022-08-07T15:14:59.611Z,22.40
2022-08-07T15:17:54.945Z,22.30
2022-08-07T15:20:32.778Z,22.20
2022-08-07T15:25:02.481Z,22.20
2022-08-07T15:26:22.179Z,22.40
2022-08-07T15:32:01.579Z,22.10
2022-08-07T15:34:37.284Z,22.00
2022-08-07T15:37:27.926Z,22.10
2022-08-07T15:39:59.827Z,22.10
2022-08-07T15:42:52.153Z,22.00
2022-08-07T15:45:56.400Z,21.80
2022-08-07T15:48:31.381Z,21.60
2022-08-07T15:53:59.347Z,21.90
2022-08-07T15:56:34.382Z,21.90
2022-08-07T15:59:06.772Z,21.70
2022-08-07T16:02:01.786Z,21.40
2022-08-07T16:04:33.566Z,21.50
2022-08-07T16:08:28.395Z,21.60
2022-08-07T16:10:07.391Z,21.70
2022-08-07T16:13:01.149Z,21.80
2022-08-07T16:15:57.257Z,21.90
2022-08-07T16:18:50.796Z,21.90
2022-08-07T16:22:02.424Z,21.70
2022-08-07T16:24:34.813Z,21.50
2022-08-07T16:27:18.438Z,21.50
2022-08-07T16:30:30.171Z,21.50
2022-08-07T16:34:02.580Z,21.40
2022-08-07T16:36:22.629Z,21.40
2022-08-07T16:39:33.975Z,21.50
2022-08-07T16:42:32.231Z,21.40
2022-08-07T16:46:33.467Z,21.30
2022-08-07T16:50:20.185Z,21.20
2022-08-07T16:52:51.549Z,21.10
2022-08-07T16:55:19.741Z,21.00
2022-08-07T16:58:03.742Z,21.00
2022-08-07T17:00:42.623Z,20.90
2022-08-07T17:03:57.895Z,20.90
2022-08-07T17:06:44.790Z,20.90
2022-08-07T17:10:06.184Z,20.70
2022-08-07T17:12:36.730Z,20.70
2022-08-07T17:15:08.710Z,20.70
2022-08-07T17:17:50.474Z,20.60
2022-08-07T17:20:32.902Z,20.50
2022-08-07T17:23:16.201Z,20.50
2022-08-07T17:25:57.131Z,20.30
2022-08-07T17:28:35.333Z,20.20
2022-08-07T17:31:16.033Z,20.10
2022-08-07T17:34:18.226Z,20.10
2022-08-07T17:36:57.507Z,20.10
2022-08-07T17:39:58.702Z,20.10
2022-08-07T17:42:58.578Z,20.20
2022-08-07T17:45:35.116Z,20.10
2022-08-07T17:48:11.254Z,20.00
2022-08-07T17:51:01.684Z,19.80
2022-08-07T17:53:59.742Z,19.70
2022-08-07T17:56:33.653Z,19.50
2022-08-07T17:59:17.141Z,19.30
2022-08-07T18:01:56.850Z,19.20
2022-08-07T18:04:34.800Z,19.10
2022-08-07T18:07:20.816Z,19.10
2022-08-07T18:10:05.738Z,19.00
2022-08-07T18:12:49.611Z,19.00
2022-08-07T18:15:23.986Z,18.90
2022-08-07T18:18:46.908Z,18.90
2022-08-07T18:21:40.230Z,18.90
2022-08-07T18:24:02.158Z,18.80
2022-08-07T18:27:26.101Z,18.80
2022-08-07T18:30:32.529Z,18.70
2022-08-07T18:33:34.481Z,18.60
2022-08-07T18:36:15.909Z,18.50
2022-08-07T18:40:05.705Z,18.30
2022-08-07T18:42:12.813Z,18.20
2022-08-07T18:45:43.415Z,18.10
2022-08-07T18:48:00.946Z,17.90
2022-08-07T18:50:55.766Z,17.90
2022-08-07T18:53:41.268Z,17.80
2022-08-07T18:56:17.709Z,17.80
2022-08-07T18:59:01.135Z,17.70
2022-08-07T19:02:19.029Z,17.60
2022-08-07T19:04:56.198Z,17.60
2022-08-07T19:07:34.915Z,17.60
2022-08-07T19:10:18.218Z,17.60
2022-08-07T19:12:59.515Z,17.60
2022-08-07T19:16:05.105Z,17.60
2022-08-07T19:18:44.785Z,17.50
2022-08-07T19:21:47.443Z,17.40
2022-08-07T19:24:30.691Z,17.30
2022-08-07T19:28:29.920Z,17.30
2022-08-07T19:31:05.543Z,17.10
2022-08-07T19:32:52.162Z,17.00
2022-08-07T19:35:33.172Z,16.90
2022-08-07T19:38:15.128Z,16.80
2022-08-07T19:40:50.606Z,16.70
2022-08-07T19:43:50.123Z,16.60
2022-08-07T19:46:11.261Z,16.50
2022-08-07T19:48:44.467Z,16.30
2022-08-07T19:51:51.340Z,16.20
2022-08-07T19:54:32.372Z,16.10
2022-08-07T19:58:02.227Z,16.00
2022-08-07T20:00:02.851Z,15.90
2022-08-07T20:02:40.480Z,15.70
2022-08-07T20:05:28.204Z,15.70
2022-08-07T20:08:00.867Z,15.60
2022-08-07T20:10:51.939Z,15.60
2022-08-07T20:13:32.017Z,15.50
2022-08-07T20:16:02.993Z,15.40
2022-08-07T20:18:34.349Z,15.40
2022-08-07T20:21:21.189Z,15.30
2022-08-07T20:23:54.333Z,15.20
2022-08-07T20:26:29.915Z,15.10
2022-08-07T20:29:10.545Z,15.10
2022-08-07T20:31:46.749Z,15.00
2022-08-07T20:34:48.808Z,15.00
2022-08-07T20:37:12.018Z,14.90
2022-08-07T20:40:04.058Z,14.90
2022-08-07T20:42:39.942Z,15.00
2022-08-07T20:46:24.005Z,15.10
2022-08-07T20:48:00.724Z,15.10
2022-08-07T20:50:30.782Z,15.10
2022-08-07T20:52:59.722Z,15.10
2022-08-07T20:55:32.132Z,15.00
2022-08-07T20:58:08.974Z,15.00
2022-08-07T21:00:46.546Z,15.00
2022-08-07T21:03:18.958Z,15.00
2022-08-07T21:05:57.118Z,15.00
2022-08-07T21:08:36.968Z,15.00
2022-08-07T21:11:14.773Z,15.00
2022-08-07T21:14:16.269Z,15.00
2022-08-07T21:16:56.482Z,15.00
2022-08-07T21:19:32.356Z,15.10
2022-08-07T21:22:20.315Z,15.10
2022-08-07T21:25:12.766Z,15.20
2022-08-07T21:28:01.675Z,15.20
2022-08-07T21:30:41.846Z,15.30
2022-08-07T21:33:16.280Z,15.30
2022-08-07T21:36:05.103Z,15.30
2022-08-07T21:38:49.766Z,15.30
2022-08-07T21:42:41.834Z,15.30
2022-08-07T21:46:05.101Z,15.30
2022-08-07T21:48:36.365Z,15.40
2022-08-07T21:51:25.422Z,15.40
2022-08-07T21:54:00.750Z,15.40
2022-08-07T21:56:48.256Z,15.30
2022-08-07T22:00:02.831Z,15.20
2022-08-07T22:02:29.754Z,15.30
2022-08-07T22:05:05.628Z,15.30
2022-08-07T22:07:58.009Z,15.30
2022-08-07T22:10:33.793Z,15.20
2022-08-07T22:13:09.242Z,15.20
2022-08-07T22:16:43.566Z,15.10
2022-08-07T22:18:40.889Z,15.10
2022-08-07T22:21:19.200Z,15.00
2022-08-07T22:23:54.349Z,15.00
2022-08-07T22:26:28.050Z,14.90
2022-08-07T22:29:08.904Z,14.90
2022-08-07T22:32:05.840Z,14.90
2022-08-07T22:34:54.109Z,14.80
2022-08-07T22:38:03.029Z,14.70
2022-08-07T22:40:36.989Z,14.80
2022-08-07T22:43:10.880Z,14.80
2022-08-07T22:46:21.127Z,14.80
2022-08-07T22:49:09.472Z,14.80
2022-08-07T22:52:00.618Z,14.90
2022-08-07T22:54:49.221Z,14.80
2022-08-07T22:57:43.505Z,14.90
2022-08-07T23:00:17.797Z,14.90
2022-08-07T23:03:09.091Z,14.90
2022-08-07T23:06:14.818Z,14.90
2022-08-07T23:08:58.534Z,14.90
2022-08-07T23:11:59.313Z,14.90
2022-08-07T23:14:38.952Z,14.90
2022-08-07T23:17:37.650Z,14.80
2022-08-07T23:20:51.915Z,14.80
2022-08-07T23:24:04.349Z,14.80
2022-08-07T23:26:41.390Z,14.80
2022-08-07T23:30:38.667Z,14.80
2022-08-07T23:34:34.244Z,14.80
2022-08-07T23:36:03.927Z,14.80
2022-08-07T23:38:54.969Z,14.80
2022-08-07T23:41:47.671Z,14.80
2022-08-07T23:45:04.810Z,14.70
2022-08-07T23:47:47.817Z,14.80
2022-08-07T23:50:44.601Z,14.80
2022-08-07T23:53:51.436Z,14.80
2022-08-07T23:56:21.410Z,14.80
2022-08-07T23:58:58.552Z,14.80
